HADR/DIR METAR and TAF weather

Enter ICAO airport designator
Station Type Date Time Source
HADR METAR 2018/04/19 13:00 UTC NOAA

HADR 191300Z 15009KT 9999 SCT026 SCT027 FEW056 27/16 Q1017


Station Type Date Time Source
HADR Decoded METAR 2018/04/19 13:00 UTC NOAA

Dire Dawa, Ethiopia (HADR) 09-36N 041-52E 1146M
Apr 19, 2018 - 09:00 AM EDT / 2018.04.19 1300 UTC
Wind: from the SSE (150 degrees) at 10 MPH (9 KT):0
Visibility: greater than 7 mile(s):0
Sky conditions: partly cloudy
Temperature: 80 F (27 C)
Dew Point: 60 F (16 C)
Relative Humidity: 50%
Pressure (altimeter): 30.03 in. Hg (1017 hPa)
ob: HADR 191300Z 15009KT 9999 SCT026 SCT027 FEW056 27/16 Q1017
cycle: 13

Station Type Date Time Source
HADR TAF 2018/04/19 12:42 UTC NOAA

TAF HADR 190930Z 1912/2018 VRB03KT 9999 BKN030 SCT080
TEMPO 1914/1918 8000M -RA
BECMG 2011/2015 8000M TSRA


Example: see airport list